Time;durP1;ratioP1;P1;durP2;ratioP2;P2;SDS_P1;SDS_P2;PMS_P1;PMS_P2;Temp;Humidity;BMP_temperature;BMP_pressure;BME280_temperature;BME280_humidity;BME280_pressure;Samples;Min_cycle;Max_cycle;Signal;HPM_P1;HPM_P2
2024/01/01 00:01:57;;;;;;;37.83;33.47;;;;;;;5.18;75.61;97211.88;4989380;28;20210;-75
2024/01/01 00:04:29;;;;;;;36.65;32.55;;;;;;;5.17;75.40;97215.56;4987599;28;20226;-74
2024/01/01 00:06:56;;;;;;;38.33;32.47;;;;;;;5.29;74.99;97211.34;4987696;28;20851;-74
2024/01/01 00:09:22;;;;;;;35.13;31.33;;;;;;;5.30;74.63;97222.91;4989249;28;20210;-74
2024/01/01 00:11:49;;;;;;;36.55;32.60;;;;;;;5.32;74.91;97220.88;4988457;28;20206;-74
2024/01/01 00:14:15;;;;;;;35.45;31.35;;;;;;;5.37;74.64;97218.47;4987324;28;20233;-74
2024/01/01 00:16:42;;;;;;;32.47;28.98;;;;;;;5.40;74.10;97213.56;4987860;28;20213;-74
2024/01/01 00:19:08;;;;;;;31.45;28.17;;;;;;;5.31;74.47;97203.94;4989573;28;20205;-74
2024/01/01 00:21:37;;;;;;;26.33;22.70;;;;;;;5.33;74.27;97204.59;4990651;28;20242;-74
2024/01/01 00:24:04;;;;;;;26.08;23.38;;;;;;;5.40;74.17;97204.66;4989360;28;20214;-74
2024/01/01 00:26:31;;;;;;;23.65;21.13;;;;;;;5.37;73.97;97208.56;4989348;28;20199;-75
2024/01/01 00:28:57;;;;;;;23.92;21.05;;;;;;;5.35;74.14;97204.41;4988035;28;20204;-74
2024/01/01 00:31:24;;;;;;;23.00;19.70;;;;;;;5.38;73.89;97214.75;4998327;28;20209;-74
2024/01/01 00:33:50;;;;;;;22.08;16.90;;;;;;;5.35;73.93;97199.88;4990979;28;20229;-74
2024/01/01 00:36:17;;;;;;;19.65;16.40;;;;;;;5.30;74.18;97202.28;4973711;28;20294;-74
2024/01/01 00:38:45;;;;;;;18.63;15.60;;;;;;;5.29;74.14;97200.63;4987991;28;20207;-74
2024/01/01 00:41:14;;;;;;;17.70;14.93;;;;;;;5.25;74.34;97202.03;4984264;28;20199;-74
2024/01/01 00:43:43;;;;;;;16.10;14.48;;;;;;;5.26;74.40;97203.69;4989577;28;20652;-74
2024/01/01 00:46:09;;;;;;;14.05;12.50;;;;;;;5.29;74.17;97197.94;4989702;28;20218;-74
2024/01/01 00:48:38;;;;;;;16.95;13.10;;;;;;;5.35;74.21;97197.19;4987925;28;20270;-74
2024/01/01 00:51:05;;;;;;;14.85;12.27;;;;;;;5.37;73.80;97208.56;4989398;28;20207;-74
2024/01/01 00:53:32;;;;;;;13.73;11.75;;;;;;;5.36;73.70;97196.16;4987833;28;20208;-74
2024/01/01 00:56:00;;;;;;;14.05;11.60;;;;;;;5.33;73.83;97198.41;4988514;28;20203;-74
2024/01/01 00:58:26;;;;;;;14.00;10.70;;;;;;;5.37;73.59;97189.78;4988967;28;20213;-74
2024/01/01 01:00:53;;;;;;;11.55;10.25;;;;;;;5.35;73.74;97199.88;5004915;28;20227;-74
2024/01/01 01:03:19;;;;;;;11.43;10.30;;;;;;;5.36;73.59;97195.34;4988752;28;20268;-74
2024/01/01 01:05:46;;;;;;;12.30;11.00;;;;;;;5.33;73.86;97196.53;4988421;28;20207;-74
2024/01/01 01:08:12;;;;;;;11.80;10.18;;;;;;;5.28;73.70;97201.66;4987953;28;20221;-74
2024/01/01 01:10:39;;;;;;;13.05;10.82;;;;;;;5.38;73.57;97204.84;4982027;28;20293;-74
2024/01/01 01:13:07;;;;;;;13.07;11.30;;;;;;;5.43;73.37;97204.28;4987289;28;20264;-74
2024/01/01 01:15:34;;;;;;;13.27;10.23;;;;;;;5.46;73.48;97209.28;5005354;28;20227;-73
2024/01/01 01:18:00;;;;;;;11.27;10.05;;;;;;;5.43;73.62;97208.81;5005440;28;20207;-74
2024/01/01 01:20:27;;;;;;;11.20;10.02;;;;;;;5.38;73.49;97212.91;4986433;28;20211;-74
2024/01/01 01:22:55;;;;;;;11.90;10.55;;;;;;;5.43;73.39;97217.72;4987664;28;20664;-74
2024/01/01 01:25:21;;;;;;;13.35;10.80;;;;;;;5.47;73.32;97216.31;4986502;28;20213;-74
2024/01/01 01:27:48;;;;;;;17.27;12.10;;;;;;;5.54;73.42;97214.50;4996961;28;20210;-74
2024/01/01 01:30:16;;;;;;;12.88;11.13;;;;;;;5.49;73.42;97222.31;4987906;28;20211;-74
2024/01/01 01:32:42;;;;;;;13.32;10.73;;;;;;;5.55;73.29;97229.59;4988302;28;20214;-74
2024/01/01 01:35:09;;;;;;;11.52;10.18;;;;;;;5.63;72.99;97221.41;4988266;28;20229;-74
2024/01/01 01:37:36;;;;;;;13.02;10.05;;;;;;;5.64;73.09;97230.31;4986828;28;20199;-74
2024/01/01 01:40:03;;;;;;;10.95;8.98;;;;;;;5.65;73.70;97231.97;4994211;28;20202;-74
2024/01/01 01:42:30;;;;;;;13.93;9.85;;;;;;;5.60;73.88;97224.47;4988190;28;20199;-74
2024/01/01 01:44:57;;;;;;;11.68;9.30;;;;;;;5.55;74.21;97220.69;4986973;28;20829;-74
2024/01/01 01:47:26;;;;;;;13.45;9.45;;;;;;;5.48;74.28;97217.16;4987075;28;20258;-74
2024/01/01 01:49:53;;;;;;;13.80;10.32;;;;;;;5.42;74.56;97220.56;5018728;28;20273;-74
2024/01/01 01:52:20;;;;;;;12.50;9.98;;;;;;;5.46;74.52;97229.91;4985826;28;20939;-74
2024/01/01 01:54:47;;;;;;;13.13;9.95;;;;;;;5.43;74.69;97219.56;4986129;28;20595;-74
2024/01/01 01:57:14;;;;;;;13.25;10.52;;;;;;;5.42;74.78;97224.09;4980019;28;20205;-75
2024/01/01 01:59:43;;;;;;;11.80;9.35;;;;;;;5.50;74.75;97220.47;4986516;28;20210;-74
2024/01/01 02:02:10;;;;;;;12.95;9.82;;;;;;;5.35;74.84;97221.34;4985997;28;20281;-75
2024/01/01 02:04:39;;;;;;;11.35;9.70;;;;;;;5.39;74.84;97219.94;4984101;28;20199;-74
2024/01/01 02:07:06;;;;;;;11.00;9.15;;;;;;;5.40;74.75;97228.81;4987762;28;20273;-74
2024/01/01 02:09:32;;;;;;;11.75;9.35;;;;;;;5.40;74.79;97213.56;4987501;28;20206;-74
2024/01/01 02:12:00;;;;;;;12.15;8.65;;;;;;;5.36;74.83;97217.63;4985256;28;20254;-74
2024/01/01 02:14:26;;;;;;;11.95;8.18;;;;;;;5.41;74.75;97214.38;4987515;28;20309;-74
2024/01/01 02:16:53;;;;;;;10.68;8.60;;;;;;;5.38;74.99;97215.59;5020020;28;20222;-74
2024/01/01 02:19:20;;;;;;;9.57;7.43;;;;;;;5.32;75.14;97210.97;5003282;28;20207;-74
2024/01/01 02:21:50;;;;;;;10.73;8.57;;;;;;;5.38;75.23;97214.75;4993844;28;20207;-74
2024/01/01 02:24:18;;;;;;;11.02;8.70;;;;;;;5.40;75.04;97213.56;4986972;28;20195;-74
2024/01/01 02:26:45;;;;;;;9.80;7.78;;;;;;;5.42;75.16;97208.00;4987649;28;20207;-74
2024/01/01 02:29:13;;;;;;;10.23;6.85;;;;;;;5.46;75.17;97221.88;4983526;28;20743;-75
2024/01/01 02:31:39;;;;;;;9.40;6.35;;;;;;;5.48;75.08;97215.28;4986916;28;20619;-75
2024/01/01 02:34:06;;;;;;;7.90;5.45;;;;;;;5.51;75.13;97219.44;4989418;28;20218;-74
2024/01/01 02:36:35;;;;;;;8.73;6.18;;;;;;;5.62;74.84;97221.59;4988777;28;20832;-75
2024/01/01 02:39:02;;;;;;;6.35;5.25;;;;;;;5.61;74.74;97225.31;4990127;28;20199;-75
2024/01/01 02:41:31;;;;;;;7.13;5.10;;;;;;;5.55;74.87;97220.69;4990287;28;20195;-74
2024/01/01 02:43:57;;;;;;;7.05;5.70;;;;;;;5.59;75.04;97222.81;4990958;28;20526;-74
2024/01/01 02:46:24;;;;;;;5.80;4.75;;;;;;;5.61;74.90;97226.16;4990934;28;20214;-74
2024/01/01 02:48:50;;;;;;;7.10;4.90;;;;;;;5.65;74.79;97226.59;4987811;28;20657;-74
2024/01/01 02:51:17;;;;;;;5.50;4.47;;;;;;;5.70;74.71;97225.00;4990055;28;20294;-74
2024/01/01 02:53:44;;;;;;;4.75;4.32;;;;;;;5.74;74.89;97226.28;4989254;28;20290;-75
2024/01/01 02:56:16;;;;;;;4.65;4.00;;;;;;;5.72;74.89;97225.66;4989872;28;20219;-74
2024/01/01 02:58:44;;;;;;;4.70;4.20;;;;;;;5.82;74.74;97222.66;4989256;28;20627;-74
2024/01/01 03:01:10;;;;;;;5.95;4.78;;;;;;;5.73;74.90;97229.16;5005718;28;20210;-75
2024/01/01 03:03:37;;;;;;;5.07;4.40;;;;;;;5.77;74.81;97222.38;4991288;28;20205;-74
2024/01/01 03:06:04;;;;;;;4.72;4.03;;;;;;;5.77;74.88;97221.56;5022068;28;20191;-75
2024/01/01 03:08:30;;;;;;;4.80;4.35;;;;;;;5.69;75.14;97220.66;4987800;28;20289;-74
2024/01/01 03:10:57;;;;;;;7.05;5.15;;;;;;;5.65;75.64;97216.69;4998504;28;20589;-74
2024/01/01 03:13:23;;;;;;;6.25;4.60;;;;;;;5.70;75.35;97213.44;4990094;28;21102;-74
2024/01/01 03:15:54;;;;;;;5.00;4.30;;;;;;;5.78;75.38;97226.72;4990302;28;20221;-74
2024/01/01 03:18:21;;;;;;;5.15;4.05;;;;;;;5.77;75.42;97235.81;4990754;28;20293;-75
2024/01/01 03:20:47;;;;;;;5.65;4.20;;;;;;;5.77;75.21;97246.56;4990708;28;20217;-74
2024/01/01 03:23:14;;;;;;;4.95;3.85;;;;;;;5.86;75.22;97255.28;4989433;28;20724;-74
2024/01/01 03:25:40;;;;;;;5.15;3.70;;;;;;;5.85;75.33;97254.44;4988264;28;20279;-74
2024/01/01 03:28:07;;;;;;;4.25;3.80;;;;;;;5.90;75.03;97254.75;4987512;28;20238;-74
2024/01/01 03:30:34;;;;;;;4.70;4.10;;;;;;;5.82;75.20;97254.88;4989616;28;20672;-74
2024/01/01 03:33:02;;;;;;;4.60;4.20;;;;;;;5.86;75.27;97249.91;4989801;28;20669;-74
2024/01/01 03:35:31;;;;;;;4.63;4.00;;;;;;;5.85;75.51;97254.44;5004367;28;20223;-74
2024/01/01 03:37:57;;;;;;;5.20;4.00;;;;;;;5.73;75.75;97248.78;4989341;28;20211;-74
2024/01/01 03:40:24;;;;;;;6.57;4.90;;;;;;;5.73;76.27;97246.09;4987547;28;20203;-74
2024/01/01 03:42:50;;;;;;;5.82;5.22;;;;;;;5.71;76.20;97250.00;4988356;28;20653;-74
2024/01/01 03:45:18;;;;;;;7.10;5.47;;;;;;;5.71;76.04;97250.00;4988933;28;20290;-74
2024/01/01 03:47:44;;;;;;;6.93;4.35;;;;;;;5.67;76.22;97256.75;4989016;28;20238;-74
2024/01/01 03:50:14;;;;;;;4.50;4.00;;;;;;;5.69;76.20;97252.03;4990133;28;20211;-74
2024/01/01 03:52:40;;;;;;;4.28;3.67;;;;;;;5.74;76.19;97254.97;4989925;28;20207;-74
2024/01/01 03:55:08;;;;;;;5.68;3.95;;;;;;;5.73;76.36;97250.63;4989487;28;20229;-75
2024/01/01 03:57:35;;;;;;;5.45;4.50;;;;;;;5.77;76.34;97249.25;4984522;28;20208;-74
2024/01/01 04:00:03;;;;;;;4.15;3.30;;;;;;;5.86;76.17;97250.75;4987489;28;20203;-74
2024/01/01 04:02:30;;;;;;;5.30;3.90;;;;;;;5.85;76.15;97256.34;4989552;28;20282;-74
2024/01/01 04:04:57;;;;;;;3.85;3.30;;;;;;;5.78;76.21;97253.59;4991533;28;20209;-75
2024/01/01 04:07:25;;;;;;;4.65;4.13;;;;;;;5.76;76.44;97255.63;4991876;28;20217;-75
2024/01/01 04:09:52;;;;;;;3.90;3.00;;;;;;;5.69;76.68;97255.56;4991733;28;20261;-75
2024/01/01 04:12:18;;;;;;;6.43;3.55;;;;;;;5.70;76.88;97251.84;4998720;28;20196;-75
2024/01/01 04:14:45;;;;;;;6.38;3.47;;;;;;;5.70;76.36;97259.06;4985701;28;20238;-74
2024/01/01 04:17:12;;;;;;;4.30;3.30;;;;;;;5.74;76.53;97258.50;4998660;28;20282;-74
2024/01/01 04:19:39;;;;;;;4.47;3.22;;;;;;;5.74;76.56;97258.50;4995633;28;20199;-75
2024/01/01 04:22:05;;;;;;;4.25;3.05;;;;;;;5.67;76.86;97259.44;4989133;28;20770;-75
2024/01/01 04:24:33;;;;;;;5.45;3.03;;;;;;;5.56;77.10;97254.56;4991334;28;20294;-74
2024/01/01 04:27:00;;;;;;;4.10;2.78;;;;;;;5.51;77.50;97257.03;4990458;28;20223;-74
2024/01/01 04:29:26;;;;;;;3.97;2.90;;;;;;;5.57;77.20;97262.44;4988483;28;20567;-74
2024/01/01 04:31:53;;;;;;;3.35;2.75;;;;;;;5.61;76.96;97258.34;4989274;28;20294;-74
2024/01/01 04:34:19;;;;;;;3.28;2.90;;;;;;;5.56;77.30;97255.41;4988505;28;20203;-74
2024/01/01 04:36:46;;;;;;;4.35;3.13;;;;;;;5.54;77.30;97253.94;4989498;28;20227;-75
2024/01/01 04:39:12;;;;;;;4.60;3.08;;;;;;;5.46;77.70;97256.75;4987214;28;20206;-74
2024/01/01 04:41:42;;;;;;;5.65;4.05;;;;;;;5.39;78.10;97253.97;4988904;28;20203;-74
2024/01/01 04:44:09;;;;;;;4.10;3.33;;;;;;;5.42;78.29;97245.56;4971260;28;20203;-74
2024/01/01 04:46:35;;;;;;;3.97;3.53;;;;;;;5.39;78.23;97230.66;4989579;28;20210;-74
2024/01/01 04:49:02;;;;;;;7.30;3.45;;;;;;;5.44;78.06;97232.78;4975474;28;20211;-74
2024/01/01 04:51:28;;;;;;;5.00;3.60;;;;;;;5.37;78.09;97243.44;4986557;28;20207;-74
2024/01/01 04:53:55;;;;;;;4.35;3.15;;;;;;;5.35;78.36;97240.13;4987544;28;20671;-74
2024/01/01 04:56:23;;;;;;;3.90;2.97;;;;;;;5.17;78.92;97249.59;4988759;28;20314;-74
2024/01/01 04:58:53;;;;;;;3.80;2.92;;;;;;;5.21;78.98;97246.31;4987799;28;20246;-74
2024/01/01 05:01:20;;;;;;;5.25;3.00;;;;;;;5.26;78.63;97245.78;4986747;28;20203;-75
2024/01/01 05:03:47;;;;;;;6.63;3.30;;;;;;;5.19;78.62;97250.25;4989475;28;20207;-75
2024/01/01 05:06:13;;;;;;;4.05;2.80;;;;;;;5.08;79.09;97248.88;4982137;28;20204;-74
2024/01/01 05:08:39;;;;;;;3.78;3.17;;;;;;;5.08;79.26;97264.97;4988993;28;20600;-74
2024/01/01 05:11:07;;;;;;;3.45;3.00;;;;;;;5.01;79.45;97250.63;4988791;28;20203;-74
2024/01/01 05:13:34;;;;;;;6.28;3.25;;;;;;;4.87;79.82;97262.22;4988262;28;20615;-73
2024/01/01 05:16:02;;;;;;;3.63;3.17;;;;;;;4.97;79.52;97266.25;4988564;28;20266;-75
2024/01/01 05:18:29;;;;;;;5.00;3.85;;;;;;;4.95;79.66;97264.78;4988080;28;20226;-74
2024/01/01 05:20:55;;;;;;;5.13;3.00;;;;;;;4.93;79.73;97280.22;4988877;28;20274;-74
2024/01/01 05:23:22;;;;;;;4.60;2.92;;;;;;;5.00;79.46;97279.28;4989523;28;20218;-74
2024/01/01 05:25:48;;;;;;;4.07;2.78;;;;;;;5.03;79.22;97276.25;4983835;28;20770;-75
2024/01/01 05:28:15;;;;;;;4.10;2.20;;;;;;;5.04;78.90;97271.72;4987118;28;20211;-74
2024/01/01 05:30:42;;;;;;;3.13;2.28;;;;;;;5.21;77.73;97281.19;4986402;28;20214;-74
2024/01/01 05:33:10;;;;;;;4.78;2.00;;;;;;;5.32;76.53;97286.09;5002723;28;20225;-74
2024/01/01 05:35:39;;;;;;;4.72;1.60;;;;;;;5.42;75.45;97295.72;4988800;28;20233;-74
2024/01/01 05:38:05;;;;;;;4.43;1.77;;;;;;;5.57;75.19;97288.44;4986946;28;20214;-75
2024/01/01 05:40:32;;;;;;;1.80;1.25;;;;;;;5.52;74.89;97293.56;4989120;28;20203;-74
2024/01/01 05:42:58;;;;;;;4.22;1.40;;;;;;;5.48;75.08;97290.44;4985038;28;20295;-74
2024/01/01 05:45:25;;;;;;;5.53;1.50;;;;;;;5.46;75.39;97288.94;4989266;28;20230;-74
2024/01/01 05:47:51;;;;;;;6.80;1.55;;;;;;;5.39;75.48;97292.38;4987704;28;20213;-74
2024/01/01 05:50:19;;;;;;;3.50;1.50;;;;;;;5.47;75.18;97293.28;4988038;28;20215;-74
2024/01/01 05:52:46;;;;;;;2.38;1.23;;;;;;;5.53;74.78;97295.19;4987472;28;20628;-74
2024/01/01 05:55:12;;;;;;;3.15;1.20;;;;;;;5.60;74.69;97304.16;4986648;28;20210;-74
2024/01/01 05:57:39;;;;;;;5.40;1.70;;;;;;;5.72;74.16;97303.50;4987501;28;20556;-74
2024/01/01 06:00:07;;;;;;;2.45;1.35;;;;;;;5.72;73.65;97308.88;4987131;28;20221;-74
2024/01/01 06:02:33;;;;;;;3.47;1.30;;;;;;;5.69;73.61;97303.03;4986132;28;20211;-74
2024/01/01 06:05:00;;;;;;;4.28;1.38;;;;;;;5.71;73.79;97317.94;4985350;28;20213;-74
2024/01/01 06:07:28;;;;;;;3.47;1.30;;;;;;;5.71;73.47;97317.94;4987183;28;20211;-75
2024/01/01 06:09:54;;;;;;;2.35;1.20;;;;;;;5.72;73.83;97313.41;4986226;28;20230;-74
2024/01/01 06:12:21;;;;;;;4.35;1.73;;;;;;;5.72;73.77;97311.56;4986601;28;20221;-74
2024/01/01 06:14:47;;;;;;;5.22;1.50;;;;;;;5.76;73.15;97319.22;4987783;28;20209;-74
2024/01/01 06:17:14;;;;;;;3.00;1.00;;;;;;;5.82;72.97;97324.69;4985470;28;20258;-75
2024/01/01 06:19:40;;;;;;;2.42;1.15;;;;;;;5.83;72.93;97320.97;4988429;28;20213;-75
2024/01/01 06:22:07;;;;;;;2.92;1.50;;;;;;;5.85;72.94;97324.25;4986228;28;20302;-74
2024/01/01 06:24:35;;;;;;;4.82;1.50;;;;;;;5.88;72.51;97323.88;4987942;28;20530;-74
2024/01/01 06:27:02;;;;;;;4.22;1.90;;;;;;;5.88;72.71;97321.19;4979645;28;20575;-74
2024/01/01 06:29:29;;;;;;;3.35;1.85;;;;;;;5.83;73.06;97318.28;4987198;28;20630;-74
2024/01/01 06:31:56;;;;;;;4.30;2.00;;;;;;;5.84;73.42;97322.63;4986451;28;20272;-74
2024/01/01 06:34:22;;;;;;;2.92;1.70;;;;;;;5.80;73.90;97328.56;4986265;28;20219;-74
2024/01/01 06:36:49;;;;;;;2.35;1.40;;;;;;;5.66;74.35;97331.09;4983316;28;20241;-75
2024/01/01 06:39:15;;;;;;;1.70;1.35;;;;;;;5.68;74.34;97328.22;4985518;28;20217;-75
2024/01/01 06:41:43;;;;;;;3.58;1.42;;;;;;;5.60;74.47;97326.47;4986989;28;20215;-75
2024/01/01 06:44:10;;;;;;;3.00;1.70;;;;;;;5.48;75.19;97337.91;4987147;28;20207;-74
2024/01/01 06:46:36;;;;;;;3.67;1.60;;;;;;;5.37;75.55;97337.34;4985321;28;20693;-74
2024/01/01 06:49:03;;;;;;;5.85;1.77;;;;;;;5.27;75.88;97336.78;4986980;28;20230;-75
2024/01/01 06:51:30;;;;;;;2.33;1.15;;;;;;;5.29;75.77;97342.81;4985986;28;20214;-74
2024/01/01 06:53:56;;;;;;;4.15;1.50;;;;;;;5.25;75.33;97336.13;4996466;28;20620;-75
2024/01/01 06:56:23;;;;;;;3.75;1.25;;;;;;;5.22;75.49;97349.91;4985862;28;20333;-74
2024/01/01 06:58:51;;;;;;;3.22;1.50;;;;;;;5.13;75.84;97343.00;4986515;28;20325;-74
2024/01/01 07:01:18;;;;;;;3.80;1.30;;;;;;;5.00;76.08;97346.31;4996178;28;20296;-75
2024/01/01 07:03:44;;;;;;;4.28;1.48;;;;;;;4.86;76.91;97349.00;4986481;28;20218;-74
2024/01/01 07:06:11;;;;;;;2.55;1.25;;;;;;;4.76;77.14;97348.44;4987395;28;20226;-74
2024/01/01 07:08:37;;;;;;;5.40;1.65;;;;;;;4.84;76.98;97359.09;4987347;28;20203;-74
2024/01/01 07:11:06;;;;;;;6.22;2.15;;;;;;;4.89;76.59;97359.34;4984626;28;20199;-74
2024/01/01 07:13:32;;;;;;;2.38;1.20;;;;;;;4.94;76.10;97362.31;4984666;28;20207;-74
2024/01/01 07:16:00;;;;;;;5.35;2.75;;;;;;;5.02;75.52;97371.09;4987188;28;20581;-74
2024/01/01 07:18:27;;;;;;;6.07;2.08;;;;;;;5.12;75.06;97368.16;4989840;28;20203;-75
2024/01/01 07:20:53;;;;;;;5.78;1.35;;;;;;;5.20;74.84;97372.63;4989971;28;20199;-74
2024/01/01 07:23:21;;;;;;;3.42;1.25;;;;;;;5.25;74.59;97381.75;4988869;28;20211;-74
2024/01/01 07:25:49;;;;;;;3.50;1.50;;;;;;;5.28;74.31;97384.06;4988076;28;20197;-74
2024/01/01 07:28:16;;;;;;;3.42;1.30;;;;;;;5.29;74.52;97391.09;4990505;28;20728;-74
2024/01/01 07:30:43;;;;;;;3.00;1.35;;;;;;;5.25;74.46;97392.47;4987997;28;20209;-73
2024/01/01 07:33:10;;;;;;;3.47;1.30;;;;;;;5.40;74.14;97395.16;4989167;28;20584;-73
2024/01/01 07:35:37;;;;;;;2.78;1.52;;;;;;;5.38;74.04;97389.97;4987861;28;20675;-74
2024/01/01 07:38:04;;;;;;;2.90;1.10;;;;;;;5.41;73.97;97410.25;4990619;28;20223;-75
2024/01/01 07:40:30;;;;;;;3.10;1.20;;;;;;;5.45;73.67;97397.31;4981704;28;20207;-75
2024/01/01 07:42:57;;;;;;;3.22;1.20;;;;;;;5.50;73.54;97392.22;4988924;28;20331;-75
2024/01/01 07:45:23;;;;;;;5.38;1.42;;;;;;;5.49;73.32;97393.22;4987937;28;20209;-74
2024/01/01 07:47:50;;;;;;;3.30;0.93;;;;;;;5.54;73.26;97396.16;4985923;28;20207;-75
2024/01/01 07:50:18;;;;;;;3.40;1.40;;;;;;;5.58;73.12;97400.97;4990703;28;20227;-74
2024/01/01 07:52:44;;;;;;;2.38;1.00;;;;;;;5.65;72.91;97406.44;4982099;28;20298;-74
2024/01/01 07:55:12;;;;;;;5.10;1.60;;;;;;;5.62;73.23;97404.94;4990031;28;20664;-75
2024/01/01 07:57:38;;;;;;;3.28;1.27;;;;;;;5.71;72.77;97403.00;4989329;28;20549;-75
2024/01/01 08:00:07;;;;;;;2.58;1.10;;;;;;;5.78;72.72;97398.56;4988686;28;20203;-75
2024/01/01 08:02:33;;;;;;;2.03;1.20;;;;;;;5.84;72.54;97403.19;4988550;28;20225;-74
2024/01/01 08:05:00;;;;;;;4.68;1.30;;;;;;;5.81;72.69;97398.19;4987996;28;20219;-75
2024/01/01 08:07:28;;;;;;;2.85;1.08;;;;;;;5.86;72.48;97401.13;4983379;28;20596;-75
2024/01/01 08:09:54;;;;;;;2.55;1.20;;;;;;;5.97;72.01;97407.91;4990212;28;20290;-75
2024/01/01 08:12:21;;;;;;;3.25;1.20;;;;;;;5.96;72.08;97416.97;4989102;28;20644;-75
2024/01/01 08:14:47;;;;;;;3.30;1.27;;;;;;;6.00;71.98;97423.63;4991920;28;20203;-74
2024/01/01 08:17:15;;;;;;;2.30;1.17;;;;;;;6.01;71.99;97423.44;4992507;28;20266;-75
2024/01/01 08:19:43;;;;;;;2.33;1.30;;;;;;;5.99;72.10;97433.53;5002986;28;20684;-75
2024/01/01 08:22:09;;;;;;;3.22;1.30;;;;;;;5.98;72.27;97431.03;4989057;28;20215;-75
2024/01/01 08:24:38;;;;;;;1.63;0.95;;;;;;;6.05;72.39;97418.53;5002909;28;20207;-74
2024/01/01 08:27:06;;;;;;;5.20;1.70;;;;;;;6.05;72.22;97424.75;4994102;28;20307;-75
2024/01/01 08:29:33;;;;;;;2.60;1.25;;;;;;;5.82;73.09;97432.06;4988191;28;20199;-75
2024/01/01 08:31:59;;;;;;;4.65;1.25;;;;;;;5.77;73.38;97423.75;4986940;28;20207;-75
2024/01/01 08:34:28;;;;;;;6.03;1.55;;;;;;;5.77;73.50;97423.75;4988152;28;20225;-75
2024/01/01 08:36:55;;;;;;;1.48;1.00;;;;;;;5.76;73.63;97435.50;5002610;28;20230;-75
2024/01/01 08:39:22;;;;;;;3.17;1.10;;;;;;;5.83;73.60;97425.69;4987006;28;20214;-74
2024/01/01 08:41:49;;;;;;;3.33;1.38;;;;;;;5.93;73.19;97422.72;4985356;28;20229;-75
2024/01/01 08:44:18;;;;;;;2.95;1.05;;;;;;;6.11;72.81;97420.47;5016514;28;20209;-74
2024/01/01 08:46:44;;;;;;;1.50;1.00;;;;;;;6.19;72.31;97432.94;4983642;28;20699;-74
2024/01/01 08:49:11;;;;;;;1.95;1.00;;;;;;;6.15;72.44;97437.88;4983401;28;20767;-75
2024/01/01 08:51:37;;;;;;;3.20;1.00;;;;;;;6.26;72.26;97429.31;4987365;28;20203;-75
2024/01/01 08:54:05;;;;;;;4.13;1.35;;;;;;;6.25;72.13;97440.22;4988811;28;20309;-77
2024/01/01 08:56:32;;;;;;;2.33;0.90;;;;;;;6.18;71.78;97440.16;4997582;28;20222;-74
2024/01/01 08:59:00;;;;;;;3.00;1.33;;;;;;;6.33;71.44;97432.91;4987236;28;20199;-74
2024/01/01 09:01:27;;;;;;;2.35;0.93;;;;;;;6.71;69.60;97435.34;4986988;28;20290;-74
2024/01/01 09:03:56;;;;;;;2.63;1.10;;;;;;;6.73;69.08;97436.00;4986966;28;20191;-75
2024/01/01 09:06:23;;;;;;;2.13;1.27;;;;;;;6.77;68.94;97437.28;4997911;28;20195;-74
2024/01/01 09:08:50;;;;;;;3.80;1.33;;;;;;;6.90;68.93;97448.13;4983699;28;20700;-74
2024/01/01 09:11:17;;;;;;;2.08;1.00;;;;;;;7.03;68.06;97450.09;4987228;28;20226;-75
2024/01/01 09:13:43;;;;;;;4.50;1.10;;;;;;;6.92;68.47;97445.25;4987269;28;20209;-74
2024/01/01 09:16:12;;;;;;;2.50;1.23;;;;;;;7.19;67.74;97447.13;4984139;28;20753;-76
2024/01/01 09:18:38;;;;;;;1.70;1.02;;;;;;;7.23;67.53;97453.78;4987327;28;20226;-75
2024/01/01 09:21:05;;;;;;;3.25;1.15;;;;;;;7.29;67.50;97450.31;4988379;28;20217;-75
2024/01/01 09:23:32;;;;;;;3.20;1.10;;;;;;;7.58;66.48;97451.94;4985233;28;20217;-75
2024/01/01 09:25:59;;;;;;;2.70;0.90;;;;;;;7.58;66.28;97468.09;4989044;28;20199;-76
2024/01/01 09:28:26;;;;;;;2.55;1.05;;;;;;;7.50;66.42;97467.41;4989098;28;20207;-76
2024/01/01 09:30:54;;;;;;;2.70;1.20;;;;;;;7.68;66.51;97463.22;4998519;28;20214;-74
2024/01/01 09:33:21;;;;;;;2.45;1.52;;;;;;;7.88;65.88;97466.00;4982848;28;20302;-75
2024/01/01 09:35:48;;;;;;;3.05;1.40;;;;;;;7.88;65.19;97468.69;4988994;28;20234;-75
2024/01/01 09:38:15;;;;;;;3.05;1.00;;;;;;;7.36;66.82;97463.81;4987288;28;20803;-76
2024/01/01 09:40:41;;;;;;;2.97;1.23;;;;;;;7.31;66.81;97459.03;4987700;28;20199;-76
2024/01/01 09:43:08;;;;;;;7.22;1.45;;;;;;;7.24;67.22;97452.75;4987391;28;20203;-75
2024/01/01 09:45:35;;;;;;;3.13;1.20;;;;;;;7.44;66.88;97470.94;5000167;28;20294;-75
2024/01/01 09:48:02;;;;;;;3.45;1.35;;;;;;;7.61;66.10;97472.28;5003912;28;20555;-75
2024/01/01 09:50:30;;;;;;;3.30;1.73;;;;;;;7.61;66.03;97483.88;5019400;28;20291;-76
2024/01/01 09:52:58;;;;;;;2.13;1.08;;;;;;;7.61;66.13;97478.50;4986849;28;20298;-75
2024/01/01 09:55:25;;;;;;;2.95;1.20;;;;;;;7.59;65.86;97474.31;4987583;28;20214;-75
2024/01/01 09:57:51;;;;;;;2.85;1.10;;;;;;;7.66;65.85;97467.13;5003711;28;20679;-75
2024/01/01 10:00:20;;;;;;;1.95;1.35;;;;;;;7.94;64.44;97473.28;4970486;28;20684;-75
2024/01/01 10:02:47;;;;;;;1.55;1.00;;;;;;;8.16;63.72;97471.31;4985832;28;20325;-76
2024/01/01 10:05:15;;;;;;;2.60;1.02;;;;;;;8.22;62.87;97461.59;4990109;28;20289;-75
2024/01/01 10:07:44;;;;;;;3.63;1.55;;;;;;;8.32;62.69;97470.13;4985714;28;20290;-75
2024/01/01 10:10:12;;;;;;;3.75;1.40;;;;;;;8.77;61.76;97477.53;4986133;28;20205;-75
2024/01/01 10:12:45;;;;;;;4.15;1.10;;;;;;;8.89;61.39;97460.75;4988070;28;20202;-75
2024/01/01 10:15:13;;;;;;;3.03;1.27;;;;;;;9.13;60.29;97457.44;4987738;28;20206;-75
2024/01/01 10:17:39;;;;;;;3.40;1.23;;;;;;;9.15;59.72;97455.38;4985098;28;20215;-75
2024/01/01 10:20:07;;;;;;;2.70;1.45;;;;;;;9.47;58.60;97442.88;4995400;28;20289;-75
2024/01/01 10:22:33;;;;;;;5.22;1.52;;;;;;;9.46;58.99;97456.59;4985827;28;20203;-76
2024/01/01 10:25:11;;;;;;;3.15;1.15;;;;;;;9.60;57.83;97469.91;4988293;28;20195;-76
2024/01/01 10:27:39;;;;;;;3.28;1.02;;;;;;;9.61;57.57;97449.13;4986664;28;20191;-75
2024/01/01 10:30:06;;;;;;;4.07;1.08;;;;;;;9.72;57.11;97456.59;4986819;28;20203;-75
2024/01/01 10:32:34;;;;;;;2.85;1.40;;;;;;;9.59;57.20;97456.59;4986126;28;20200;-76
2024/01/01 10:35:02;;;;;;;5.05;1.30;;;;;;;9.91;57.06;97469.22;5002091;28;20218;-75
2024/01/01 10:37:30;;;;;;;3.38;1.23;;;;;;;9.88;57.26;97461.53;4984615;28;20230;-75
2024/01/01 10:40:04;;;;;;;3.88;1.17;;;;;;;10.15;55.53;97459.56;4986337;28;20619;-75
2024/01/01 10:42:33;;;;;;;4.05;1.38;;;;;;;9.84;56.97;97460.28;4987530;28;20213;-75
2024/01/01 10:45:03;;;;;;;3.75;1.60;;;;;;;10.11;55.62;97467.25;4987107;28;20270;-75
2024/01/01 10:47:30;;;;;;;5.90;3.17;;;;;;;9.42;57.29;97478.63;4972424;28;20208;-75
2024/01/01 10:50:19;;;;;;;4.97;2.05;;;;;;;8.70;58.91;97482.13;4986146;28;20215;-75
2024/01/01 10:53:04;;;;;;;4.72;1.65;;;;;;;8.48;58.88;97479.75;4985824;28;20200;-85
2024/01/01 10:55:44;;;;;;;5.05;1.83;;;;;;;8.28;59.92;97480.50;4988757;28;20282;-75
2024/01/01 10:58:23;;;;;;;8.13;3.90;;;;;;;8.26;60.71;97479.88;4996077;28;20218;-75
2024/01/01 11:01:10;;;;;;;5.05;3.65;;;;;;;8.20;60.91;97506.78;4990700;28;20228;-74
2024/01/01 11:03:36;;;;;;;5.50;4.60;;;;;;;8.01;60.98;97479.56;4989485;28;20202;-75
2024/01/01 11:06:26;;;;;;;7.78;4.70;;;;;;;7.90;61.53;97484.66;4991130;28;20254;-74
2024/01/01 11:08:53;;;;;;;5.28;2.50;;;;;;;7.96;60.75;97473.94;4989646;28;20203;-75
2024/01/01 11:11:30;;;;;;;7.15;5.22;;;;;;;7.85;61.36;97490.63;4984988;28;20676;-75
2024/01/01 11:13:58;;;;;;;5.45;2.50;;;;;;;7.93;60.38;97486.97;4988054;28;20210;-75
2024/01/01 11:16:27;;;;;;;4.85;1.50;;;;;;;7.64;61.56;97505.03;4987970;28;20209;-74
2024/01/01 11:18:54;;;;;;;5.43;1.85;;;;;;;7.72;63.20;97495.97;4989937;28;20233;-75
2024/01/01 11:21:32;;;;;;;6.22;2.28;;;;;;;7.73;62.97;97494.94;4990219;28;20199;-74
2024/01/01 11:24:01;;;;;;;3.72;1.42;;;;;;;7.72;63.08;97495.97;4989033;28;20195;-74
2024/01/01 11:26:32;;;;;;;3.38;2.05;;;;;;;7.72;62.22;97485.19;5023393;28;20729;-75
2024/01/01 11:29:15;;;;;;;3.70;1.60;;;;;;;7.65;62.36;97495.09;5004934;28;20203;-75
2024/01/01 11:31:42;;;;;;;4.97;2.55;;;;;;;7.92;61.26;97483.44;4988710;28;20691;-75
2024/01/01 11:34:10;;;;;;;5.95;1.90;;;;;;;8.04;60.89;97467.53;4990321;28;20222;-75
2024/01/01 11:36:40;;;;;;;4.75;1.60;;;;;;;8.09;60.71;97476.69;4986419;28;20213;-75
2024/01/01 11:39:08;;;;;;;5.95;1.55;;;;;;;7.91;60.61;97483.63;4988860;28;20215;-75
2024/01/01 11:41:34;;;;;;;4.25;1.20;;;;;;;7.80;60.72;97509.25;4987909;28;20552;-74